createdAt,value
2018-06-17T00:00:56.256Z,20.20
2018-06-17T00:03:23.395Z,20.25
2018-06-17T00:05:50.502Z,20.24
2018-06-17T00:08:17.733Z,20.23
2018-06-17T00:10:44.939Z,20.10
2018-06-17T00:13:12.051Z,20.02
2018-06-17T00:15:39.216Z,20.01
2018-06-17T00:18:06.345Z,19.96
2018-06-17T00:20:33.468Z,20.02
2018-06-17T00:23:00.613Z,19.94
2018-06-17T00:25:27.771Z,19.87
2018-06-17T00:27:54.924Z,19.76
2018-06-17T00:30:22.193Z,19.63
2018-06-17T00:32:49.485Z,19.50
2018-06-17T00:35:16.622Z,19.36
2018-06-17T00:37:43.796Z,19.30
2018-06-17T00:40:10.923Z,19.19
2018-06-17T00:42:38.060Z,19.02
2018-06-17T00:45:05.239Z,19.04
2018-06-17T00:47:32.363Z,18.94
2018-06-17T00:49:59.484Z,18.83
2018-06-17T00:52:26.726Z,18.75
2018-06-17T00:54:54.004Z,18.70
2018-06-17T00:57:32.751Z,18.60
2018-06-17T00:59:59.895Z,18.45
2018-06-17T01:02:27.148Z,18.25
2018-06-17T01:04:54.321Z,18.33
2018-06-17T01:07:21.468Z,18.21
2018-06-17T01:09:48.585Z,18.16
2018-06-17T01:12:15.839Z,18.22
2018-06-17T01:14:42.978Z,18.06
2018-06-17T01:17:10.087Z,18.04
2018-06-17T01:19:37.319Z,17.95
2018-06-17T01:22:04.423Z,17.87
2018-06-17T01:24:32.623Z,17.73
2018-06-17T01:26:59.778Z,17.67
2018-06-17T01:29:26.931Z,17.56
2018-06-17T01:31:54.063Z,17.54
2018-06-17T01:34:21.241Z,17.46
2018-06-17T01:36:48.359Z,17.44
2018-06-17T01:39:15.516Z,17.35
2018-06-17T01:41:42.678Z,17.27
2018-06-17T01:44:09.806Z,17.18
2018-06-17T01:46:36.916Z,17.11
2018-06-17T01:49:04.129Z,17.02
2018-06-17T01:51:31.256Z,16.94
2018-06-17T01:53:58.393Z,16.87
2018-06-17T01:56:25.576Z,16.76
2018-06-17T01:58:52.683Z,16.77
2018-06-17T02:01:19.864Z,16.71
2018-06-17T02:03:52.824Z,16.65
2018-06-17T02:06:25.730Z,16.61
2018-06-17T02:08:58.572Z,16.52
2018-06-17T02:12:31.030Z,16.45
2018-06-17T02:14:58.875Z,16.41
2018-06-17T02:17:26.776Z,16.42
2018-06-17T02:19:54.545Z,16.40
2018-06-17T02:22:21.790Z,16.40
2018-06-17T02:24:49.031Z,16.36
2018-06-17T02:27:16.209Z,16.34
2018-06-17T02:29:43.503Z,16.30
2018-06-17T02:32:10.708Z,16.28
2018-06-17T02:34:38.044Z,16.24
2018-06-17T02:37:05.636Z,16.23
2018-06-17T02:39:32.800Z,16.19
2018-06-17T02:41:59.925Z,16.19
2018-06-17T02:44:27.103Z,16.21
2018-06-17T02:47:00.015Z,16.21
2018-06-17T02:49:33.025Z,16.18
2018-06-17T02:52:06.020Z,16.17
2018-06-17T02:54:38.894Z,16.18
2018-06-17T02:57:06.580Z,16.19
2018-06-17T02:59:33.660Z,16.15
2018-06-17T03:02:01.245Z,16.14
2018-06-17T03:04:28.379Z,16.10
2018-06-17T03:06:55.520Z,16.07
2018-06-17T03:09:22.853Z,16.05
2018-06-17T03:11:50.020Z,16.10
2018-06-17T03:14:17.244Z,16.06
2018-06-17T03:16:44.450Z,16.02
2018-06-17T03:19:11.632Z,16.01
2018-06-17T03:21:38.772Z,15.98
2018-06-17T03:24:05.965Z,15.91
2018-06-17T03:26:38.675Z,15.85
2018-06-17T03:29:11.500Z,15.84
2018-06-17T03:31:44.287Z,15.84
2018-06-17T03:34:11.459Z,15.81
2018-06-17T03:36:38.565Z,15.83
2018-06-17T03:39:06.394Z,15.83
2018-06-17T03:41:33.587Z,15.80
2018-06-17T03:44:00.735Z,15.82
2018-06-17T03:46:27.864Z,15.89
2018-06-17T03:48:55.107Z,15.90
2018-06-17T03:51:22.202Z,15.89
2018-06-17T03:53:49.358Z,15.87
2018-06-17T03:56:16.523Z,15.94
2018-06-17T03:58:43.632Z,15.97
2018-06-17T04:01:10.769Z,16.00
2018-06-17T04:03:37.919Z,16.06
2018-06-17T04:06:05.023Z,16.11
2018-06-17T04:08:32.127Z,16.19
2018-06-17T04:10:59.287Z,16.18
2018-06-17T04:13:26.506Z,16.22
2018-06-17T04:15:53.681Z,16.27
2018-06-17T04:18:20.908Z,16.36
2018-06-17T04:20:48.036Z,16.46
2018-06-17T04:23:15.108Z,16.52
2018-06-17T04:25:42.280Z,16.59
2018-06-17T04:28:09.397Z,16.66
2018-06-17T04:30:36.497Z,16.71
2018-06-17T04:33:03.647Z,16.80
2018-06-17T04:35:30.753Z,16.91
2018-06-17T04:37:57.855Z,17.02
2018-06-17T04:40:25.048Z,17.15
2018-06-17T04:42:52.163Z,17.34
2018-06-17T04:45:19.350Z,17.54
2018-06-17T04:47:46.541Z,17.70
2018-06-17T04:50:13.684Z,17.83
2018-06-17T04:52:40.780Z,17.93
2018-06-17T04:55:07.958Z,18.00
2018-06-17T04:57:35.098Z,18.11
2018-06-17T05:00:02.230Z,18.27
2018-06-17T05:02:29.435Z,18.42
2018-06-17T05:04:56.547Z,18.67
2018-06-17T05:07:23.666Z,18.96
2018-06-17T05:09:50.830Z,19.04
2018-06-17T05:12:17.958Z,19.13
2018-06-17T05:14:45.071Z,19.43
2018-06-17T05:17:12.216Z,19.53
2018-06-17T05:19:39.415Z,19.61
2018-06-17T05:22:06.794Z,19.78
2018-06-17T05:24:33.949Z,19.85
2018-06-17T05:27:01.081Z,19.94
2018-06-17T05:29:28.352Z,19.99
2018-06-17T05:31:56.009Z,20.11
2018-06-17T05:34:23.113Z,20.09
2018-06-17T05:36:50.289Z,20.16
2018-06-17T05:39:17.467Z,20.32
2018-06-17T05:41:44.881Z,20.32
2018-06-17T05:44:12.023Z,20.45
2018-06-17T05:46:39.188Z,20.62
2018-06-17T05:49:06.616Z,20.64
2018-06-17T05:51:34.307Z,20.59
2018-06-17T05:54:01.525Z,20.64
2018-06-17T05:56:28.743Z,20.78
2018-06-17T05:58:55.911Z,20.82
2018-06-17T06:01:23.096Z,20.93
2018-06-17T06:03:50.271Z,21.04
2018-06-17T06:06:17.387Z,21.11
2018-06-17T06:08:44.535Z,21.14
2018-06-17T06:11:11.739Z,21.29
2018-06-17T06:13:38.867Z,21.39
2018-06-17T06:16:06.126Z,21.41
2018-06-17T06:18:33.367Z,21.52
2018-06-17T06:21:00.584Z,21.46
2018-06-17T06:23:27.749Z,21.61
2018-06-17T06:25:54.945Z,21.65
2018-06-17T06:28:22.054Z,21.69
2018-06-17T06:30:49.191Z,21.72
2018-06-17T06:33:16.320Z,21.66
2018-06-17T06:35:45.888Z,21.81
2018-06-17T06:38:13.052Z,21.95
2018-06-17T06:40:40.309Z,21.99
2018-06-17T06:43:07.642Z,22.14
2018-06-17T06:45:34.860Z,22.31
2018-06-17T06:48:02.026Z,22.37
2018-06-17T06:50:29.219Z,22.46
2018-06-17T06:52:57.265Z,22.60
2018-06-17T06:55:24.429Z,22.75
2018-06-17T06:57:51.656Z,22.81
2018-06-17T07:00:19.068Z,22.90
2018-06-17T07:02:57.568Z,23.00
2018-06-17T07:05:36.691Z,23.17
2018-06-17T07:08:15.219Z,23.31
2018-06-17T07:10:42.438Z,23.40
2018-06-17T07:13:09.552Z,23.61
2018-06-17T07:15:49.317Z,23.74
2018-06-17T07:18:28.920Z,23.68
2018-06-17T07:20:56.782Z,23.84
2018-06-17T07:23:24.002Z,23.79
2018-06-17T07:26:30.267Z,23.93
2018-06-17T07:29:08.835Z,23.93
2018-06-17T07:31:36.527Z,24.23
2018-06-17T07:34:03.847Z,24.20
2018-06-17T07:36:30.980Z,24.35
2018-06-17T07:38:58.610Z,24.28
2018-06-17T07:41:26.871Z,24.30
2018-06-17T07:43:54.264Z,24.40
2018-06-17T07:46:21.703Z,24.59
2018-06-17T07:49:25.602Z,24.80
2018-06-17T07:52:05.435Z,24.90
2018-06-17T07:54:32.797Z,24.80
2018-06-17T07:57:01.060Z,24.86
2018-06-17T07:59:28.376Z,24.86
2018-06-17T08:01:55.850Z,25.05
2018-06-17T08:04:23.023Z,24.95
2018-06-17T08:06:50.523Z,25.01
2018-06-17T08:09:17.729Z,25.00
2018-06-17T08:11:45.888Z,24.96
2018-06-17T08:14:13.054Z,24.97
2018-06-17T08:16:40.176Z,25.00
2018-06-17T08:19:07.365Z,25.31
2018-06-17T08:21:34.623Z,25.29
2018-06-17T08:24:01.906Z,25.43
2018-06-17T08:26:29.219Z,25.28
2018-06-17T08:28:56.947Z,25.25
2018-06-17T08:31:24.516Z,25.39
2018-06-17T08:33:51.790Z,25.37
2018-06-17T08:36:19.054Z,25.56
2018-06-17T08:38:46.180Z,25.68
2018-06-17T08:41:13.331Z,25.67
2018-06-17T08:43:40.647Z,25.39
2018-06-17T08:46:07.885Z,25.62
2018-06-17T08:48:35.031Z,25.81
2018-06-17T08:51:02.375Z,25.85
2018-06-17T08:53:29.671Z,26.11
2018-06-17T08:55:57.048Z,26.57
2018-06-17T08:58:24.312Z,26.62
2018-06-17T09:00:51.450Z,26.36
2018-06-17T09:03:18.637Z,26.60
2018-06-17T09:05:46.140Z,26.78
2018-06-17T09:08:13.349Z,26.75
2018-06-17T09:10:40.548Z,26.84
2018-06-17T09:13:07.741Z,26.72
2018-06-17T09:15:34.970Z,26.55
2018-06-17T09:18:02.189Z,26.59
2018-06-17T09:20:29.498Z,27.02
2018-06-17T09:22:56.976Z,27.14
2018-06-17T09:25:24.134Z,27.19
2018-06-17T09:27:51.332Z,27.22
2018-06-17T09:30:18.479Z,27.05
2018-06-17T09:32:45.689Z,27.02
2018-06-17T09:35:12.965Z,27.52
2018-06-17T09:37:40.067Z,27.86
2018-06-17T09:40:07.218Z,27.81
2018-06-17T09:42:35.205Z,27.66
2018-06-17T09:45:02.520Z,27.88
2018-06-17T09:47:29.822Z,27.95
2018-06-17T09:49:57.396Z,28.27
2018-06-17T09:52:24.652Z,28.03
2018-06-17T09:54:51.765Z,27.86
2018-06-17T09:57:18.937Z,28.02
2018-06-17T09:59:46.148Z,28.21
2018-06-17T10:02:13.302Z,28.03
2018-06-17T10:04:40.659Z,28.15
2018-06-17T10:07:07.897Z,28.26
2018-06-17T10:09:46.619Z,28.63
2018-06-17T10:12:13.864Z,28.83
2018-06-17T10:14:40.988Z,28.92
2018-06-17T10:17:08.180Z,28.98
2018-06-17T10:19:35.351Z,29.80
2018-06-17T10:22:02.725Z,30.87
2018-06-17T10:24:30.083Z,31.01
2018-06-17T10:26:57.392Z,31.37
2018-06-17T10:29:24.572Z,31.41
2018-06-17T10:31:51.770Z,31.21
2018-06-17T10:34:18.928Z,31.87
2018-06-17T10:36:46.063Z,30.55
2018-06-17T10:39:13.219Z,30.72
2018-06-17T10:41:40.371Z,31.29
2018-06-17T10:44:07.529Z,30.60
2018-06-17T10:46:34.696Z,30.38
2018-06-17T10:49:01.900Z,30.91
2018-06-17T10:51:29.092Z,30.50
2018-06-17T10:53:56.387Z,30.82
2018-06-17T10:56:23.527Z,30.80
2018-06-17T10:58:50.757Z,30.27
2018-06-17T11:01:17.969Z,30.27
2018-06-17T11:03:45.056Z,31.02
2018-06-17T11:06:12.300Z,31.47
2018-06-17T11:08:39.444Z,32.07
2018-06-17T11:11:06.644Z,31.65
2018-06-17T11:13:34.039Z,32.05
2018-06-17T11:16:01.309Z,31.53
2018-06-17T11:18:28.671Z,30.96
2018-06-17T11:20:55.959Z,31.46
2018-06-17T11:23:23.151Z,31.89
2018-06-17T11:25:50.269Z,32.08
2018-06-17T11:28:18.395Z,32.12
2018-06-17T11:30:45.559Z,32.45
2018-06-17T11:33:12.674Z,32.65
2018-06-17T11:35:39.793Z,32.99
2018-06-17T11:38:06.971Z,33.21
2018-06-17T11:40:34.220Z,33.99
2018-06-17T11:43:01.488Z,34.69
2018-06-17T11:45:28.981Z,34.89
2018-06-17T11:47:56.320Z,35.39
2018-06-17T11:50:23.471Z,34.42
2018-06-17T11:52:50.687Z,34.14
2018-06-17T11:55:17.817Z,34.11
2018-06-17T11:57:44.939Z,34.67
2018-06-17T12:00:12.086Z,35.04
2018-06-17T12:02:39.221Z,34.57
2018-06-17T12:05:06.357Z,35.14
2018-06-17T12:07:33.631Z,34.66
2018-06-17T12:10:00.931Z,34.87
2018-06-17T12:12:28.365Z,34.27
2018-06-17T12:14:55.580Z,32.91
2018-06-17T12:17:22.728Z,32.38
2018-06-17T12:19:50.706Z,31.39
2018-06-17T12:22:17.868Z,31.01
2018-06-17T12:24:45.069Z,30.33
2018-06-17T12:27:12.267Z,30.34
2018-06-17T12:29:39.439Z,29.93
2018-06-17T12:32:06.571Z,29.74
2018-06-17T12:34:34.049Z,29.58
2018-06-17T12:37:01.339Z,29.64
2018-06-17T12:39:28.752Z,29.83
2018-06-17T12:41:56.121Z,29.89
2018-06-17T12:44:23.355Z,29.72
2018-06-17T12:46:50.464Z,29.87
2018-06-17T12:49:17.578Z,29.64
2018-06-17T12:51:44.752Z,29.62
2018-06-17T12:54:11.899Z,29.17
2018-06-17T12:56:39.029Z,29.24
2018-06-17T12:59:06.265Z,28.50
2018-06-17T13:01:33.528Z,28.36
2018-06-17T13:04:00.640Z,28.57
2018-06-17T13:06:27.868Z,29.08
2018-06-17T13:08:55.003Z,28.93
2018-06-17T13:11:22.145Z,28.61
2018-06-17T13:13:49.345Z,28.07
2018-06-17T13:16:16.589Z,27.35
2018-06-17T13:18:43.984Z,27.32
2018-06-17T13:21:11.300Z,27.20
2018-06-17T13:23:38.805Z,27.12
2018-06-17T13:26:06.181Z,26.84
2018-06-17T13:28:33.405Z,26.83
2018-06-17T13:31:00.538Z,26.70
2018-06-17T13:33:27.680Z,26.70
2018-06-17T13:35:54.874Z,26.98
2018-06-17T13:38:22.023Z,27.23
2018-06-17T13:40:49.161Z,26.95
2018-06-17T13:43:16.353Z,26.70
2018-06-17T13:45:43.682Z,26.63
2018-06-17T13:48:10.975Z,26.88
2018-06-17T13:50:38.527Z,27.16
2018-06-17T13:53:06.047Z,27.60
2018-06-17T13:55:33.155Z,27.80
2018-06-17T13:58:00.333Z,27.69
2018-06-17T14:00:27.701Z,27.11
2018-06-17T14:02:54.885Z,27.10
2018-06-17T14:05:22.068Z,26.88
2018-06-17T14:07:49.215Z,26.79
2018-06-17T14:10:16.354Z,26.75
2018-06-17T14:12:43.557Z,26.94
2018-06-17T14:15:11.709Z,27.10
2018-06-17T14:17:38.933Z,27.00
2018-06-17T14:20:07.118Z,27.48
2018-06-17T14:22:34.435Z,28.07
2018-06-17T14:25:01.803Z,28.77
2018-06-17T14:27:30.192Z,28.91
2018-06-17T14:29:57.387Z,28.68
2018-06-17T14:32:24.539Z,28.57
2018-06-17T14:34:51.724Z,28.64
2018-06-17T14:37:18.881Z,28.92
2018-06-17T14:39:46.062Z,28.85
2018-06-17T14:42:18.875Z,28.79
2018-06-17T14:44:51.719Z,29.50
2018-06-17T14:47:24.881Z,29.65
2018-06-17T14:49:57.837Z,29.76
2018-06-17T14:52:30.401Z,30.31
2018-06-17T14:54:57.563Z,30.93
2018-06-17T14:57:24.928Z,31.26
2018-06-17T14:59:52.131Z,32.52
2018-06-17T15:02:19.315Z,33.18
2018-06-17T15:04:46.740Z,34.03
2018-06-17T15:07:14.165Z,34.71
2018-06-17T15:09:41.561Z,35.57
2018-06-17T15:12:08.991Z,33.45
2018-06-17T15:14:36.561Z,32.12
2018-06-17T15:17:03.836Z,31.59
2018-06-17T15:19:31.101Z,31.78
2018-06-17T15:21:58.352Z,30.75
2018-06-17T15:24:25.517Z,32.46
2018-06-17T15:26:52.787Z,31.57
2018-06-17T15:29:20.105Z,30.05
2018-06-17T15:31:52.849Z,29.07
2018-06-17T15:34:25.840Z,27.85
2018-06-17T15:38:00.249Z,27.19
2018-06-17T15:40:33.334Z,26.51
2018-06-17T15:43:00.471Z,26.03
2018-06-17T15:45:27.792Z,26.26
2018-06-17T15:47:55.429Z,27.26
2018-06-17T15:50:23.039Z,27.40
2018-06-17T15:52:50.765Z,28.17
2018-06-17T15:55:18.337Z,28.01
2018-06-17T15:57:45.605Z,27.70
2018-06-17T16:00:12.796Z,27.11
2018-06-17T16:02:40.006Z,26.90
2018-06-17T16:05:07.169Z,26.45
2018-06-17T16:07:34.617Z,26.32
2018-06-17T16:10:02.243Z,26.06
2018-06-17T16:12:34.995Z,25.77
2018-06-17T16:15:07.712Z,25.71
2018-06-17T16:17:40.544Z,25.47
2018-06-17T16:20:13.386Z,25.41
2018-06-17T16:22:40.578Z,25.25
2018-06-17T16:25:07.885Z,25.22
2018-06-17T16:27:35.060Z,25.23
2018-06-17T16:30:02.540Z,25.77
2018-06-17T16:32:30.024Z,25.91
2018-06-17T16:34:57.658Z,25.91
2018-06-17T16:37:25.103Z,25.67
2018-06-17T16:39:52.547Z,25.73
2018-06-17T16:42:19.791Z,25.50
2018-06-17T16:44:47.935Z,25.33
2018-06-17T16:47:15.175Z,25.17
2018-06-17T16:49:42.408Z,25.17
2018-06-17T16:52:15.364Z,25.27
2018-06-17T16:54:48.488Z,25.21
2018-06-17T16:57:21.332Z,25.18
2018-06-17T16:59:51.316Z,25.00
2018-06-17T17:02:18.752Z,24.85
2018-06-17T17:04:46.544Z,24.72
2018-06-17T17:07:13.874Z,24.68
2018-06-17T17:09:42.491Z,24.59
2018-06-17T17:12:10.610Z,24.58
2018-06-17T17:14:38.275Z,24.71
2018-06-17T17:17:05.699Z,24.64
2018-06-17T17:19:34.315Z,24.53
2018-06-17T17:22:01.666Z,24.43
2018-06-17T17:24:29.180Z,24.37
2018-06-17T17:26:56.319Z,24.34
2018-06-17T17:29:23.561Z,24.22
2018-06-17T17:31:56.344Z,24.16
2018-06-17T17:34:30.676Z,24.10
2018-06-17T17:37:04.219Z,24.06
2018-06-17T17:39:40.327Z,23.95
2018-06-17T17:42:07.457Z,23.87
2018-06-17T17:44:40.446Z,23.82
2018-06-17T17:47:13.242Z,23.81
2018-06-17T17:49:40.439Z,23.68
2018-06-17T17:52:07.540Z,23.58
2018-06-17T17:54:34.696Z,23.54
2018-06-17T17:57:01.973Z,23.49
2018-06-17T17:59:29.474Z,23.53
2018-06-17T18:01:56.838Z,23.50
2018-06-17T18:04:24.135Z,23.35
2018-06-17T18:06:51.585Z,23.36
2018-06-17T18:09:18.799Z,23.24
2018-06-17T18:11:45.960Z,23.09
2018-06-17T18:14:13.071Z,23.11
2018-06-17T18:16:40.256Z,23.08
2018-06-17T18:19:07.380Z,23.02
2018-06-17T18:21:35.119Z,23.05
2018-06-17T18:24:02.489Z,23.14
2018-06-17T18:26:35.424Z,23.12
2018-06-17T18:29:08.675Z,23.05
2018-06-17T18:31:42.749Z,23.02
2018-06-17T18:34:15.511Z,22.93
2018-06-17T18:36:43.413Z,22.97
2018-06-17T18:39:10.750Z,23.00
2018-06-17T18:41:37.981Z,22.87
2018-06-17T18:44:05.187Z,22.76
2018-06-17T18:46:32.389Z,22.74
2018-06-17T18:48:59.985Z,22.65
2018-06-17T18:51:27.161Z,22.52
2018-06-17T18:53:54.467Z,22.32
2018-06-17T18:56:21.645Z,22.21
2018-06-17T18:58:49.212Z,22.08
2018-06-17T19:01:17.525Z,21.90
2018-06-17T19:03:46.137Z,21.75
2018-06-17T19:06:14.447Z,21.68
2018-06-17T19:08:47.775Z,21.55
2018-06-17T19:11:20.905Z,21.51
2018-06-17T19:14:02.449Z,21.47
2018-06-17T19:17:38.876Z,21.41
2018-06-17T19:20:06.106Z,21.30
2018-06-17T19:22:33.272Z,21.18
2018-06-17T19:25:00.451Z,21.13
2018-06-17T19:27:27.625Z,21.08
2018-06-17T19:29:56.081Z,21.05
2018-06-17T19:32:24.414Z,21.00
2018-06-17T19:34:53.030Z,20.95
2018-06-17T19:37:22.642Z,20.81
2018-06-17T19:39:51.525Z,20.75
2018-06-17T19:42:20.791Z,20.64
2018-06-17T19:44:50.098Z,20.51
2018-06-17T19:47:18.795Z,20.33
2018-06-17T19:49:53.010Z,20.21
2018-06-17T19:52:27.997Z,20.06
2018-06-17T19:55:01.823Z,19.91
2018-06-17T19:57:34.982Z,19.76
2018-06-17T20:00:08.006Z,19.58
2018-06-17T20:02:35.110Z,19.41
2018-06-17T20:05:02.837Z,19.23
2018-06-17T20:07:30.536Z,19.12
2018-06-17T20:09:58.396Z,18.98
2018-06-17T20:12:27.032Z,18.90
2018-06-17T20:14:54.889Z,18.88
2018-06-17T20:17:22.864Z,19.00
2018-06-17T20:19:51.005Z,19.07
2018-06-17T20:22:19.329Z,19.20
2018-06-17T20:24:46.517Z,19.29
2018-06-17T20:27:13.688Z,19.27
2018-06-17T20:29:40.898Z,19.17
2018-06-17T20:32:13.817Z,19.06
2018-06-17T20:34:48.059Z,18.92
2018-06-17T20:37:20.886Z,18.79
2018-06-17T20:39:54.263Z,18.63
2018-06-17T20:42:26.972Z,18.45
2018-06-17T20:44:54.289Z,18.28
2018-06-17T20:47:21.511Z,18.16
2018-06-17T20:49:48.886Z,18.04
2018-06-17T20:52:16.072Z,17.87
2018-06-17T20:54:43.371Z,17.79
2018-06-17T20:57:10.859Z,17.68
2018-06-17T20:59:38.565Z,17.53
2018-06-17T21:02:06.408Z,17.39
2018-06-17T21:04:34.229Z,17.23
2018-06-17T21:07:01.395Z,17.11
2018-06-17T21:09:28.603Z,17.05
2018-06-17T21:11:55.851Z,16.98
2018-06-17T21:14:23.032Z,16.87
2018-06-17T21:16:50.199Z,16.75
2018-06-17T21:19:22.936Z,16.73
2018-06-17T21:21:57.083Z,16.64
2018-06-17T21:24:30.127Z,16.56
2018-06-17T21:27:02.917Z,16.47
2018-06-17T21:29:30.129Z,16.35
2018-06-17T21:31:57.480Z,16.25
2018-06-17T21:34:24.794Z,16.22
2018-06-17T21:36:52.306Z,16.12
2018-06-17T21:39:19.944Z,16.06
2018-06-17T21:41:47.916Z,16.00
2018-06-17T21:44:15.145Z,15.96
2018-06-17T21:46:42.311Z,15.92
2018-06-17T21:49:09.459Z,15.86
2018-06-17T21:51:36.608Z,15.78
2018-06-17T21:54:03.860Z,15.72
2018-06-17T21:56:30.982Z,15.68
2018-06-17T21:58:58.107Z,15.64
2018-06-17T22:01:25.589Z,15.58
2018-06-17T22:03:56.587Z,15.56
2018-06-17T22:06:23.964Z,15.54
2018-06-17T22:08:56.973Z,15.47
2018-06-17T22:11:29.907Z,15.42
2018-06-17T22:14:02.750Z,15.36
2018-06-17T22:18:42.683Z,15.38
2018-06-17T22:21:09.981Z,15.35
2018-06-17T22:23:37.104Z,15.24
2018-06-17T22:26:04.334Z,15.24
2018-06-17T22:28:31.491Z,15.23
2018-06-17T22:30:58.594Z,15.21
2018-06-17T22:33:26.083Z,15.14
2018-06-17T22:35:53.501Z,14.97
2018-06-17T22:38:21.041Z,14.88
2018-06-17T22:40:48.781Z,14.72
2018-06-17T22:43:16.198Z,14.56
2018-06-17T22:45:43.321Z,14.60
2018-06-17T22:48:10.436Z,14.53
2018-06-17T22:50:37.591Z,14.53
2018-06-17T22:53:16.136Z,14.49
2018-06-17T22:55:43.318Z,14.39
2018-06-17T22:58:16.219Z,14.32
2018-06-17T23:00:49.330Z,14.26
2018-06-17T23:03:22.214Z,14.22
2018-06-17T23:05:55.141Z,14.20
2018-06-17T23:08:28.095Z,14.17
2018-06-17T23:10:55.423Z,14.14
2018-06-17T23:13:22.857Z,14.12
2018-06-17T23:15:50.470Z,14.06
2018-06-17T23:18:18.802Z,14.06
2018-06-17T23:20:46.011Z,14.03
2018-06-17T23:23:13.228Z,14.02
2018-06-17T23:25:40.387Z,13.98
2018-06-17T23:28:07.646Z,13.95
2018-06-17T23:30:34.842Z,13.94
2018-06-17T23:33:02.016Z,13.85
2018-06-17T23:35:29.304Z,13.84
2018-06-17T23:37:56.636Z,13.78
2018-06-17T23:40:23.974Z,13.77
2018-06-17T23:42:51.913Z,13.71
2018-06-17T23:45:19.593Z,13.74
2018-06-17T23:47:53.437Z,13.73
2018-06-17T23:50:26.678Z,13.75
2018-06-17T23:52:59.827Z,13.69
2018-06-17T23:55:32.691Z,13.62
2018-06-17T23:57:59.861Z,13.66
